createdAt,value
2023-01-19T00:01:52.630Z,80.71
2023-01-19T00:04:18.964Z,81.06
2023-01-19T00:06:45.299Z,80.77
2023-01-19T00:09:11.658Z,80.89
2023-01-19T00:11:38.019Z,80.87
2023-01-19T00:14:04.606Z,80.59
2023-01-19T00:16:30.944Z,80.61
2023-01-19T00:18:57.309Z,81.15
2023-01-19T00:21:23.667Z,80.67
2023-01-19T00:23:50.240Z,80.59
2023-01-19T00:26:16.774Z,80.65
2023-01-19T00:28:43.115Z,80.57
2023-01-19T00:31:09.509Z,80.68
2023-01-19T00:33:35.900Z,80.62
2023-01-19T00:36:02.224Z,80.45
2023-01-19T00:38:28.613Z,80.56
2023-01-19T00:40:54.963Z,80.41
2023-01-19T00:43:21.516Z,80.70
2023-01-19T00:45:48.085Z,80.51
2023-01-19T00:48:14.664Z,80.67
2023-01-19T00:50:41.210Z,80.53
2023-01-19T00:53:07.768Z,80.44
2023-01-19T00:55:34.762Z,80.50
2023-01-19T00:58:01.108Z,80.53
2023-01-19T01:00:27.492Z,80.36
2023-01-19T01:02:53.955Z,80.41
2023-01-19T01:05:20.337Z,80.11
2023-01-19T01:07:46.676Z,80.25
2023-01-19T01:10:13.068Z,80.35
2023-01-19T01:12:39.400Z,80.35
2023-01-19T01:15:05.841Z,80.42
2023-01-19T01:17:32.186Z,80.51
2023-01-19T01:19:58.528Z,80.47
2023-01-19T01:22:24.858Z,80.24
2023-01-19T01:24:51.190Z,80.14
2023-01-19T01:27:17.605Z,80.10
2023-01-19T01:29:43.946Z,80.18
2023-01-19T01:32:10.510Z,80.28
2023-01-19T01:34:36.869Z,80.67
2023-01-19T01:37:03.218Z,80.08
2023-01-19T01:39:29.587Z,80.24
2023-01-19T01:41:56.038Z,80.19
2023-01-19T01:44:23.970Z,80.10
2023-01-19T01:46:50.302Z,80.16
2023-01-19T01:49:16.638Z,80.40
2023-01-19T01:51:43.210Z,79.85
2023-01-19T01:54:09.766Z,79.96
2023-01-19T01:56:36.123Z,80.22
2023-01-19T01:59:02.494Z,79.86
2023-01-19T02:01:29.130Z,80.41
2023-01-19T02:03:55.876Z,80.00
2023-01-19T02:06:22.208Z,79.94
2023-01-19T02:08:48.535Z,80.13
2023-01-19T02:11:14.878Z,80.53
2023-01-19T02:13:41.240Z,80.37
2023-01-19T02:16:07.588Z,80.02
2023-01-19T02:18:34.159Z,79.90
2023-01-19T02:21:00.708Z,80.13
2023-01-19T02:23:27.073Z,79.83
2023-01-19T02:25:53.412Z,80.03
2023-01-19T02:28:19.955Z,80.35
2023-01-19T02:30:46.460Z,79.98
2023-01-19T02:33:13.060Z,79.97
2023-01-19T02:35:39.436Z,80.30
2023-01-19T02:38:05.931Z,79.60
2023-01-19T02:40:32.258Z,79.99
2023-01-19T02:42:59.215Z,80.20
2023-01-19T02:45:25.830Z,79.64
2023-01-19T02:47:52.180Z,79.49
2023-01-19T02:50:18.522Z,79.99
2023-01-19T02:52:44.873Z,79.68
2023-01-19T02:55:11.215Z,80.10
2023-01-19T02:57:37.546Z,79.96
2023-01-19T03:00:03.911Z,79.87
2023-01-19T03:02:30.475Z,80.04
2023-01-19T03:04:56.880Z,79.95
2023-01-19T03:07:23.467Z,79.90
2023-01-19T03:09:49.846Z,79.57
2023-01-19T03:12:16.440Z,79.60
2023-01-19T03:14:43.021Z,79.90
2023-01-19T03:17:09.555Z,80.07
2023-01-19T03:19:35.877Z,79.33
2023-01-19T03:22:02.215Z,79.48
2023-01-19T03:24:28.542Z,79.65
2023-01-19T03:26:54.857Z,79.26
2023-01-19T03:29:21.194Z,80.22
2023-01-19T03:31:47.777Z,79.37
2023-01-19T03:34:14.227Z,79.69
2023-01-19T03:36:40.590Z,79.91
2023-01-19T03:39:06.942Z,79.64
2023-01-19T03:41:33.329Z,79.66
2023-01-19T03:43:59.648Z,79.43
2023-01-19T03:46:26.025Z,80.05
2023-01-19T03:48:52.371Z,79.46
2023-01-19T03:51:18.927Z,79.25
2023-01-19T03:53:45.270Z,79.78
2023-01-19T03:56:11.610Z,79.13
2023-01-19T03:58:37.932Z,79.40
2023-01-19T04:01:04.502Z,79.44
2023-01-19T04:03:30.886Z,80.01
2023-01-19T04:05:57.452Z,79.72
2023-01-19T04:08:23.791Z,79.71
2023-01-19T04:10:50.347Z,79.92
2023-01-19T04:13:16.698Z,79.31
2023-01-19T04:15:43.113Z,79.38
2023-01-19T04:18:09.696Z,79.52
2023-01-19T04:20:36.062Z,79.17
2023-01-19T04:23:02.764Z,79.11
2023-01-19T04:25:29.391Z,79.09
2023-01-19T04:27:55.748Z,79.33
2023-01-19T04:30:22.095Z,79.49
2023-01-19T04:32:48.452Z,79.20
2023-01-19T04:35:14.795Z,79.79
2023-01-19T04:37:41.142Z,79.03
2023-01-19T04:40:07.692Z,79.29
2023-01-19T04:42:34.052Z,79.17
2023-01-19T04:45:00.422Z,79.20
2023-01-19T04:47:26.787Z,79.22
2023-01-19T04:49:53.132Z,79.11
2023-01-19T04:52:19.502Z,79.81
2023-01-19T04:54:45.889Z,79.25
2023-01-19T04:57:12.442Z,78.87
2023-01-19T04:59:38.767Z,78.89
2023-01-19T05:02:05.351Z,79.09
2023-01-19T05:04:31.767Z,78.98
2023-01-19T05:06:58.322Z,79.48
2023-01-19T05:09:24.693Z,79.49
2023-01-19T05:11:51.239Z,79.02
2023-01-19T05:14:17.576Z,79.22
2023-01-19T05:16:43.877Z,79.24
2023-01-19T05:19:10.382Z,78.98
2023-01-19T05:21:36.716Z,79.41
2023-01-19T05:24:03.284Z,79.05
2023-01-19T05:26:29.630Z,79.40
2023-01-19T05:28:55.970Z,79.40
2023-01-19T05:31:22.368Z,78.86
2023-01-19T05:33:48.799Z,79.27
2023-01-19T05:36:15.168Z,79.38
2023-01-19T05:38:41.527Z,79.15
2023-01-19T05:41:07.879Z,79.18
2023-01-19T05:43:34.250Z,79.20
2023-01-19T05:46:00.609Z,79.27
2023-01-19T05:48:26.964Z,78.88
2023-01-19T05:50:53.324Z,79.45
2023-01-19T05:53:19.677Z,79.32
2023-01-19T05:55:46.037Z,78.84
2023-01-19T05:58:12.408Z,78.85
2023-01-19T06:00:38.768Z,79.18
2023-01-19T06:03:05.352Z,79.10
2023-01-19T06:05:31.776Z,78.96
2023-01-19T06:07:58.322Z,78.97
2023-01-19T06:10:24.675Z,78.85
2023-01-19T06:12:51.059Z,79.08
2023-01-19T06:15:17.738Z,79.13
2023-01-19T06:17:44.059Z,78.56
2023-01-19T06:20:10.431Z,78.71
2023-01-19T06:22:36.806Z,78.77
2023-01-19T06:25:05.677Z,78.44
2023-01-19T06:27:32.222Z,78.73
2023-01-19T06:29:58.576Z,79.41
2023-01-19T06:32:25.148Z,78.94
2023-01-19T06:34:53.862Z,78.88
2023-01-19T06:37:20.396Z,78.49
2023-01-19T06:39:46.976Z,78.76
2023-01-19T06:42:13.304Z,78.90
2023-01-19T06:44:39.652Z,78.91
2023-01-19T06:47:15.607Z,78.88
2023-01-19T06:49:42.634Z,78.39
2023-01-19T06:52:08.995Z,79.54
2023-01-19T06:54:35.356Z,79.07
2023-01-19T06:57:02.788Z,78.91
2023-01-19T06:59:29.843Z,78.88
2023-01-19T07:01:56.355Z,78.43
2023-01-19T07:04:22.893Z,78.66
2023-01-19T07:06:49.250Z,79.30
2023-01-19T07:09:16.898Z,78.62
2023-01-19T07:11:43.347Z,78.43
2023-01-19T07:14:09.695Z,78.89
2023-01-19T07:16:36.069Z,79.39
2023-01-19T07:19:02.474Z,78.96
2023-01-19T07:21:29.398Z,78.25
2023-01-19T07:23:55.859Z,77.79
2023-01-19T07:26:22.416Z,78.97
2023-01-19T07:28:51.072Z,79.32
2023-01-19T07:31:17.629Z,78.81
2023-01-19T07:33:44.122Z,78.87
2023-01-19T07:36:10.506Z,79.30
2023-01-19T07:38:36.920Z,79.12
2023-01-19T07:41:03.304Z,78.29
2023-01-19T07:43:30.594Z,77.02
2023-01-19T07:45:57.118Z,77.91
2023-01-19T07:48:23.607Z,78.62
2023-01-19T07:50:49.954Z,77.43
2023-01-19T07:53:16.324Z,76.95
2023-01-19T07:55:42.810Z,76.85
2023-01-19T07:58:09.191Z,76.83
2023-01-19T08:00:35.611Z,76.87
2023-01-19T08:03:02.353Z,77.01
2023-01-19T08:05:28.984Z,77.24
2023-01-19T08:07:55.566Z,77.51
2023-01-19T08:10:22.095Z,77.80
2023-01-19T08:12:48.490Z,77.64
2023-01-19T08:15:14.858Z,77.72
2023-01-19T08:17:41.271Z,77.88
2023-01-19T08:20:07.626Z,78.29
2023-01-19T08:22:33.948Z,78.33
2023-01-19T08:25:00.278Z,77.76
2023-01-19T08:27:27.628Z,78.10
2023-01-19T08:29:57.535Z,78.40
2023-01-19T08:32:23.949Z,78.38
2023-01-19T08:34:50.345Z,78.15
2023-01-19T08:37:16.671Z,78.19
2023-01-19T08:39:43.004Z,78.04
2023-01-19T08:42:09.547Z,78.03
2023-01-19T08:44:37.864Z,78.18
2023-01-19T08:47:07.764Z,78.05
2023-01-19T08:49:34.117Z,77.88
2023-01-19T08:52:00.463Z,78.10
2023-01-19T08:54:26.869Z,78.17
2023-01-19T08:56:53.203Z,78.02
2023-01-19T08:59:19.565Z,78.28
2023-01-19T09:01:46.018Z,78.39
2023-01-19T09:04:12.450Z,78.29
2023-01-19T09:06:38.810Z,78.21
2023-01-19T09:09:05.187Z,78.12
2023-01-19T09:11:31.543Z,78.30
2023-01-19T09:14:00.440Z,78.23
2023-01-19T09:16:27.176Z,78.28
2023-01-19T09:18:53.645Z,78.26
2023-01-19T09:21:20.017Z,78.31
2023-01-19T09:23:46.605Z,78.34
2023-01-19T09:26:13.062Z,78.50
2023-01-19T09:28:39.415Z,78.47
2023-01-19T09:31:05.939Z,78.43
2023-01-19T09:33:32.413Z,78.51
2023-01-19T09:35:58.762Z,78.65
2023-01-19T09:38:25.111Z,78.57
2023-01-19T09:40:51.454Z,78.59
2023-01-19T09:43:17.788Z,78.71
2023-01-19T09:45:44.146Z,78.76
2023-01-19T09:48:10.487Z,79.32
2023-01-19T09:50:36.843Z,80.13
2023-01-19T09:53:03.300Z,79.82
2023-01-19T09:55:29.713Z,79.53
2023-01-19T09:57:56.044Z,79.18
2023-01-19T10:00:22.623Z,79.00
2023-01-19T10:02:49.016Z,78.99
2023-01-19T10:05:15.345Z,78.92
2023-01-19T10:07:41.910Z,79.01
2023-01-19T10:10:11.469Z,79.07
2023-01-19T10:12:37.829Z,79.15
2023-01-19T10:15:04.164Z,79.18
2023-01-19T10:17:30.503Z,79.22
2023-01-19T10:19:56.830Z,79.23
2023-01-19T10:22:23.184Z,79.32
2023-01-19T10:24:49.529Z,79.36
2023-01-19T10:27:15.876Z,79.45
2023-01-19T10:29:42.263Z,79.71
2023-01-19T10:32:08.649Z,79.40
2023-01-19T10:34:35.008Z,79.60
2023-01-19T10:37:01.584Z,79.58
2023-01-19T10:39:27.969Z,79.71
2023-01-19T10:41:54.304Z,80.52
2023-01-19T10:44:20.632Z,80.22
2023-01-19T10:46:46.977Z,80.73
2023-01-19T10:49:13.341Z,80.60
2023-01-19T10:51:39.684Z,80.38
2023-01-19T10:54:06.048Z,80.64
2023-01-19T10:56:32.430Z,80.44
2023-01-19T10:58:58.831Z,80.53
2023-01-19T11:01:25.266Z,80.48
2023-01-19T11:03:51.997Z,80.54
2023-01-19T11:06:18.370Z,80.73
2023-01-19T11:08:44.721Z,80.90
2023-01-19T11:11:11.123Z,80.67
2023-01-19T11:13:37.496Z,80.52
2023-01-19T11:16:03.873Z,80.79
2023-01-19T11:18:30.257Z,80.81
2023-01-19T11:20:56.600Z,80.27
2023-01-19T11:23:22.958Z,79.34
2023-01-19T11:25:49.331Z,79.80
2023-01-19T11:28:15.697Z,79.96
2023-01-19T11:30:42.270Z,80.24
2023-01-19T11:33:08.618Z,80.50
2023-01-19T11:35:34.977Z,80.53
2023-01-19T11:38:01.342Z,80.62
2023-01-19T11:40:27.727Z,80.75
2023-01-19T11:42:54.058Z,80.61
2023-01-19T11:45:20.422Z,80.92
2023-01-19T11:47:46.773Z,80.72
2023-01-19T11:50:13.126Z,80.69
2023-01-19T11:52:40.767Z,80.81
2023-01-19T11:55:08.058Z,80.86
2023-01-19T11:57:34.422Z,80.88
2023-01-19T12:00:00.797Z,80.58
2023-01-19T12:02:27.242Z,80.56
2023-01-19T12:04:53.603Z,80.66
2023-01-19T12:07:19.955Z,81.00
2023-01-19T12:09:46.307Z,81.39
2023-01-19T12:12:12.881Z,80.93
2023-01-19T12:14:39.229Z,81.14
2023-01-19T12:17:05.607Z,81.00
2023-01-19T12:19:31.973Z,81.30
2023-01-19T12:21:58.516Z,81.16
2023-01-19T12:24:24.999Z,80.88
2023-01-19T12:26:51.399Z,80.80
2023-01-19T12:29:17.766Z,80.80
2023-01-19T12:31:44.458Z,80.46
2023-01-19T12:34:10.901Z,80.33
2023-01-19T12:36:37.234Z,81.03
2023-01-19T12:39:03.598Z,81.03
2023-01-19T12:41:29.966Z,80.90
2023-01-19T12:43:56.557Z,81.71
2023-01-19T12:46:22.943Z,81.41
2023-01-19T12:48:49.299Z,80.34
2023-01-19T12:51:15.650Z,79.84
2023-01-19T12:53:41.980Z,80.33
2023-01-19T12:56:08.321Z,80.55
2023-01-19T12:58:34.668Z,80.27
2023-01-19T13:01:01.044Z,80.33
2023-01-19T13:03:27.458Z,80.39
2023-01-19T13:05:54.003Z,80.53
2023-01-19T13:08:20.339Z,80.41
2023-01-19T13:10:46.696Z,80.45
2023-01-19T13:13:13.043Z,80.47
2023-01-19T13:15:39.409Z,80.51
2023-01-19T13:18:05.809Z,80.63
2023-01-19T13:20:32.154Z,80.79
2023-01-19T13:22:58.716Z,80.66
2023-01-19T13:25:25.055Z,80.80
2023-01-19T13:27:51.398Z,81.09
2023-01-19T13:30:17.850Z,80.66
2023-01-19T13:32:44.261Z,80.75
2023-01-19T13:35:10.621Z,80.59
2023-01-19T13:37:36.965Z,80.73
2023-01-19T13:40:03.610Z,80.57
2023-01-19T13:42:29.987Z,80.65
2023-01-19T13:44:56.360Z,80.97
2023-01-19T13:47:22.721Z,80.88
2023-01-19T13:49:49.056Z,81.11
2023-01-19T13:52:15.458Z,80.73
2023-01-19T13:54:42.193Z,80.95
2023-01-19T13:57:08.594Z,79.92
2023-01-19T13:59:34.994Z,79.65
2023-01-19T14:02:01.505Z,80.14
2023-01-19T14:04:28.378Z,80.22
2023-01-19T14:06:54.782Z,80.06
2023-01-19T14:09:21.190Z,80.41
2023-01-19T14:11:47.658Z,80.31
2023-01-19T14:14:14.035Z,80.27
2023-01-19T14:16:40.393Z,80.26
2023-01-19T14:19:06.749Z,80.51
2023-01-19T14:21:33.079Z,80.49
2023-01-19T14:23:59.432Z,80.42
2023-01-19T14:26:25.766Z,80.53
2023-01-19T14:28:52.119Z,80.68
2023-01-19T14:31:18.760Z,80.79
2023-01-19T14:33:45.122Z,80.71
2023-01-19T14:36:11.473Z,80.81
2023-01-19T14:38:37.826Z,80.75
2023-01-19T14:41:04.158Z,80.95
2023-01-19T14:43:30.515Z,80.75
2023-01-19T14:45:56.874Z,80.85
2023-01-19T14:48:23.231Z,81.10
2023-01-19T14:51:02.392Z,81.27
2023-01-19T14:53:29.986Z,79.83
2023-01-19T14:55:56.360Z,79.64
2023-01-19T14:58:22.712Z,79.28
2023-01-19T15:00:49.263Z,78.75
2023-01-19T15:03:15.906Z,78.36
2023-01-19T15:05:42.250Z,78.52
2023-01-19T15:08:08.605Z,78.03
2023-01-19T15:10:34.943Z,76.92
2023-01-19T15:13:01.270Z,77.25
2023-01-19T15:15:27.599Z,76.58
2023-01-19T15:17:56.144Z,76.93
2023-01-19T15:20:22.969Z,75.32
2023-01-19T15:22:49.308Z,76.25
2023-01-19T15:25:15.662Z,76.58
2023-01-19T15:27:42.037Z,76.53
2023-01-19T15:30:08.379Z,76.93
2023-01-19T15:32:34.737Z,75.74
2023-01-19T15:35:01.302Z,75.76
2023-01-19T15:37:27.844Z,76.11
2023-01-19T15:39:54.204Z,74.44
2023-01-19T15:42:20.562Z,76.02
2023-01-19T15:44:46.916Z,76.67
2023-01-19T15:47:13.271Z,78.35
2023-01-19T15:49:39.610Z,78.35
2023-01-19T15:52:05.949Z,78.27
2023-01-19T15:54:32.513Z,78.55
2023-01-19T15:56:58.856Z,77.97
2023-01-19T15:59:25.208Z,77.56
2023-01-19T16:01:51.760Z,77.85
2023-01-19T16:04:18.258Z,78.03
2023-01-19T16:06:44.615Z,78.24
2023-01-19T16:09:10.965Z,75.68
2023-01-19T16:11:37.335Z,77.23
2023-01-19T16:14:03.673Z,78.51
2023-01-19T16:16:30.044Z,78.54
2023-01-19T16:18:56.652Z,78.92
2023-01-19T16:21:23.037Z,79.19
2023-01-19T16:23:49.391Z,79.28
2023-01-19T16:26:17.555Z,79.81
2023-01-19T16:28:44.082Z,80.01
2023-01-19T16:31:10.424Z,79.65
2023-01-19T16:33:36.755Z,79.89
2023-01-19T16:36:03.091Z,79.79
2023-01-19T16:38:29.425Z,80.09
2023-01-19T16:40:55.885Z,79.98
2023-01-19T16:43:22.298Z,79.96
2023-01-19T16:45:49.009Z,79.98
2023-01-19T16:48:15.401Z,79.98
2023-01-19T16:50:41.760Z,80.12
2023-01-19T16:53:08.123Z,80.24
2023-01-19T16:55:34.484Z,80.42
2023-01-19T16:58:00.822Z,80.30
2023-01-19T17:00:27.210Z,80.51
2023-01-19T17:02:53.595Z,80.61
2023-01-19T17:05:19.991Z,80.58
2023-01-19T17:07:46.579Z,80.54
2023-01-19T17:10:13.260Z,80.68
2023-01-19T17:12:39.820Z,80.54
2023-01-19T17:15:06.151Z,80.60
2023-01-19T17:17:32.504Z,80.73
2023-01-19T17:19:58.829Z,80.74
2023-01-19T17:22:25.196Z,80.68
2023-01-19T17:24:51.562Z,80.97
2023-01-19T17:27:17.896Z,80.85
2023-01-19T17:29:44.232Z,80.80
2023-01-19T17:32:10.605Z,80.73
2023-01-19T17:34:36.967Z,80.79
2023-01-19T17:37:03.439Z,80.82
2023-01-19T17:39:31.072Z,80.88
2023-01-19T17:41:57.403Z,80.91
2023-01-19T17:44:24.736Z,80.76
2023-01-19T17:46:51.075Z,81.02
2023-01-19T17:49:17.445Z,80.97
2023-01-19T17:51:46.821Z,81.00
2023-01-19T17:54:13.171Z,80.95
2023-01-19T17:56:39.524Z,81.00
2023-01-19T17:59:05.889Z,81.06
2023-01-19T18:01:32.391Z,81.02
2023-01-19T18:03:59.037Z,81.15
2023-01-19T18:06:25.405Z,81.13
2023-01-19T18:08:51.755Z,81.09
2023-01-19T18:11:18.120Z,81.09
2023-01-19T18:13:44.486Z,81.23
2023-01-19T18:16:10.874Z,81.27
2023-01-19T18:18:37.248Z,81.24
2023-01-19T18:21:04.249Z,81.21
2023-01-19T18:23:30.605Z,81.22
2023-01-19T18:25:57.150Z,81.10
2023-01-19T18:28:23.470Z,81.17
2023-01-19T18:30:49.876Z,81.13
2023-01-19T18:33:16.262Z,81.13
2023-01-19T18:35:42.835Z,81.08
2023-01-19T18:38:09.211Z,81.17
2023-01-19T18:40:35.598Z,81.24
2023-01-19T18:43:01.959Z,81.19
2023-01-19T18:45:28.326Z,81.27
2023-01-19T18:47:54.663Z,81.30
2023-01-19T18:50:21.026Z,81.17
2023-01-19T18:52:47.584Z,81.13
2023-01-19T18:55:13.944Z,81.30
2023-01-19T18:57:40.516Z,81.25
2023-01-19T19:00:06.879Z,81.16
2023-01-19T19:02:33.442Z,81.32
2023-01-19T19:04:59.762Z,81.31
2023-01-19T19:07:26.092Z,81.20
2023-01-19T19:09:52.468Z,81.22
2023-01-19T19:12:18.850Z,81.26
2023-01-19T19:14:45.198Z,81.20
2023-01-19T19:17:11.531Z,81.18
2023-01-19T19:19:37.906Z,81.37
2023-01-19T19:22:04.278Z,81.11
2023-01-19T19:24:30.635Z,81.14
2023-01-19T19:26:56.971Z,81.15
2023-01-19T19:29:23.318Z,81.17
2023-01-19T19:31:50.235Z,81.44
2023-01-19T19:34:16.600Z,82.07
2023-01-19T19:36:42.954Z,81.97
2023-01-19T19:39:09.324Z,81.59
2023-01-19T19:41:35.698Z,81.32
2023-01-19T19:44:02.047Z,81.30
2023-01-19T19:46:28.591Z,81.33
2023-01-19T19:48:57.411Z,81.21
2023-01-19T19:51:23.807Z,81.22
2023-01-19T19:53:51.468Z,81.30
2023-01-19T19:56:17.963Z,81.49
2023-01-19T19:58:44.540Z,81.21
2023-01-19T20:01:10.970Z,81.30
2023-01-19T20:03:37.357Z,81.14
2023-01-19T20:06:03.697Z,81.11
2023-01-19T20:08:30.284Z,81.29
2023-01-19T20:10:56.620Z,81.17
2023-01-19T20:13:22.940Z,81.20
2023-01-19T20:15:49.308Z,81.04
2023-01-19T20:18:15.704Z,81.22
2023-01-19T20:20:42.047Z,81.16
2023-01-19T20:23:08.370Z,81.07
2023-01-19T20:25:35.108Z,81.28
2023-01-19T20:28:01.476Z,80.95
2023-01-19T20:30:27.834Z,81.27
2023-01-19T20:32:54.205Z,81.05
2023-01-19T20:35:21.136Z,80.93
2023-01-19T20:37:47.486Z,81.03
2023-01-19T20:40:13.879Z,81.05
2023-01-19T20:42:40.204Z,81.19
2023-01-19T20:45:06.750Z,80.98
2023-01-19T20:47:33.083Z,81.14
2023-01-19T20:49:59.420Z,81.10
2023-01-19T20:52:25.781Z,81.22
2023-01-19T20:54:52.236Z,81.17
2023-01-19T20:57:18.589Z,81.27
2023-01-19T20:59:44.943Z,81.20
2023-01-19T21:02:11.349Z,81.11
2023-01-19T21:04:37.743Z,81.01
2023-01-19T21:07:04.110Z,81.34
2023-01-19T21:09:30.469Z,81.09
2023-01-19T21:11:57.648Z,81.12
2023-01-19T21:14:24.068Z,81.27
2023-01-19T21:16:50.417Z,81.06
2023-01-19T21:19:17.979Z,80.92
2023-01-19T21:21:44.327Z,81.12
2023-01-19T21:24:10.870Z,80.99
2023-01-19T21:26:37.223Z,80.97
2023-01-19T21:29:03.582Z,81.01
2023-01-19T21:31:29.973Z,81.16
2023-01-19T21:33:57.072Z,81.33
2023-01-19T21:36:23.411Z,80.97
2023-01-19T21:38:49.732Z,80.97
2023-01-19T21:41:16.096Z,80.94
2023-01-19T21:43:42.437Z,81.11
2023-01-19T21:46:08.789Z,81.37
2023-01-19T21:48:35.371Z,80.94
2023-01-19T21:51:01.726Z,81.04
2023-01-19T21:53:28.296Z,80.95
2023-01-19T21:55:54.627Z,80.93
2023-01-19T21:58:20.967Z,80.88
2023-01-19T22:00:47.320Z,81.04
2023-01-19T22:03:13.833Z,81.06
2023-01-19T22:05:40.439Z,80.94
2023-01-19T22:08:06.774Z,80.99
2023-01-19T22:10:33.122Z,80.98
2023-01-19T22:12:59.469Z,80.99
2023-01-19T22:15:25.800Z,80.95
2023-01-19T22:17:52.147Z,80.92
2023-01-19T22:20:18.488Z,80.90
2023-01-19T22:22:44.843Z,81.16
2023-01-19T22:25:11.544Z,80.80
2023-01-19T22:27:38.042Z,80.85
2023-01-19T22:30:04.375Z,80.83
2023-01-19T22:32:30.738Z,80.99
2023-01-19T22:34:57.060Z,80.94
2023-01-19T22:37:23.387Z,80.98
2023-01-19T22:39:49.749Z,80.93
2023-01-19T22:42:16.105Z,80.90
2023-01-19T22:44:42.450Z,80.72
2023-01-19T22:47:08.820Z,80.79
2023-01-19T22:49:35.202Z,80.83
2023-01-19T22:52:01.561Z,80.83
2023-01-19T22:54:27.924Z,80.97
2023-01-19T22:56:54.276Z,81.05
2023-01-19T22:59:20.650Z,80.80
2023-01-19T23:01:47.230Z,80.99
2023-01-19T23:04:13.702Z,80.90
2023-01-19T23:06:40.259Z,81.06
2023-01-19T23:09:06.588Z,80.79
2023-01-19T23:11:35.602Z,80.82
2023-01-19T23:14:02.282Z,80.91
2023-01-19T23:16:28.649Z,80.86
2023-01-19T23:18:56.247Z,81.07
2023-01-19T23:21:22.601Z,81.00
2023-01-19T23:23:49.146Z,80.88
2023-01-19T23:26:15.496Z,80.88
2023-01-19T23:28:42.064Z,80.76
2023-01-19T23:31:08.533Z,80.80
2023-01-19T23:33:34.906Z,80.82
2023-01-19T23:36:01.257Z,80.97
2023-01-19T23:38:27.600Z,80.89
2023-01-19T23:40:54.137Z,80.91
2023-01-19T23:43:20.506Z,80.83
2023-01-19T23:45:46.837Z,80.68
2023-01-19T23:48:13.168Z,80.94
2023-01-19T23:50:39.500Z,80.83
2023-01-19T23:53:05.823Z,80.76
2023-01-19T23:55:32.377Z,80.91
2023-01-19T23:57:58.702Z,80.71
